Time;durP1;ratioP1;P1;durP2;ratioP2;P2;SDS_P1;SDS_P2;PMS_P1;PMS_P2;Temp;Humidity;BMP_temperature;BMP_pressure;BME280_temperature;BME280_humidity;BME280_pressure;Samples;Min_cycle;Max_cycle;Signal;HPM_P1;HPM_P2
2023/09/22 00:04:12;;;;;;;4.55;3.00;;;21.00;92.70;;;;;;10364975;28;20208;-86
2023/09/22 00:09:15;;;;;;;7.32;4.50;;;20.90;93.20;;;;;;10354699;28;20205;-86
2023/09/22 00:14:18;;;;;;;3.88;3.47;;;20.80;92.10;;;;;;10369334;28;20200;-86
2023/09/22 00:19:20;;;;;;;4.38;3.97;;;20.70;93.30;;;;;;10372208;28;20216;-86
2023/09/22 00:24:23;;;;;;;4.80;3.20;;;20.80;93.80;;;;;;10371540;28;20201;-87
2023/09/22 00:29:26;;;;;;;4.20;3.72;;;20.70;92.80;;;;;;10371082;28;20209;-86
2023/09/22 00:34:28;;;;;;;10.90;5.47;;;20.60;93.90;;;;;;10360704;28;20208;-86
2023/09/22 00:39:31;;;;;;;9.70;4.30;;;20.60;92.00;;;;;;10374395;28;20260;-86
2023/09/22 00:44:34;;;;;;;5.57;3.50;;;20.60;94.10;;;;;;10356570;28;20262;-86
2023/09/22 00:49:37;;;;;;;5.38;4.75;;;20.60;94.40;;;;;;10353971;28;20298;-86
2023/09/22 00:54:40;;;;;;;5.72;3.88;;;20.40;93.60;;;;;;10373073;28;20236;-86
2023/09/22 00:59:46;;;;;;;3.78;3.30;;;20.40;95.10;;;;;;10368371;28;20256;-86
2023/09/22 01:04:49;;;;;;;2.97;2.50;;;20.20;95.30;;;;;;10314583;28;20875;-86
2023/09/22 01:09:51;;;;;;;7.13;3.55;;;20.20;96.80;;;;;;10350784;28;20232;-86
2023/09/22 01:14:54;;;;;;;5.95;4.30;;;20.10;95.60;;;;;;10354894;28;20235;-86
2023/09/22 01:19:57;;;;;;;10.25;4.13;;;20.00;96.30;;;;;;10354776;28;20306;-86
2023/09/22 01:24:59;;;;;;;8.55;3.67;;;19.90;96.90;;;;;;10354665;28;20282;-86
2023/09/22 01:30:05;;;;;;;6.15;3.60;;;19.90;96.50;;;;;;10362808;28;20252;-87
2023/09/22 01:35:08;;;;;;;4.50;3.58;;;19.80;96.60;;;;;;10354163;28;20301;-86
2023/09/22 01:40:13;;;;;;;8.98;4.68;;;19.80;97.20;;;;;;10343380;28;21014;-86
2023/09/22 01:45:16;;;;;;;5.28;4.10;;;19.70;97.70;;;;;;10337706;28;20278;-87
2023/09/22 01:50:19;;;;;;;3.10;2.80;;;19.90;98.60;;;;;;10352916;28;20240;-87
2023/09/22 01:55:22;;;;;;;9.02;5.15;;;19.90;99.00;;;;;;10346978;28;20268;-87
2023/09/22 02:00:25;;;;;;;7.75;5.25;;;19.90;96.50;;;;;;10312665;28;20322;-86
2023/09/22 02:05:29;;;;;;;11.48;5.65;;;19.60;97.00;;;;;;10361797;28;20267;-86
2023/09/22 02:10:32;;;;;;;7.75;4.47;;;19.40;97.20;;;;;;10368830;28;20232;-86
2023/09/22 02:15:36;;;;;;;4.82;3.55;;;19.30;98.50;;;;;;10369204;28;20278;-86
2023/09/22 02:20:41;;;;;;;11.15;5.22;;;19.30;99.90;;;;;;10335947;28;20306;-87
2023/09/22 02:25:44;;;;;;;9.65;6.20;;;19.20;99.90;;;;;;10351693;28;20231;-87
2023/09/22 02:30:47;;;;;;;5.03;4.15;;;19.00;99.70;;;;;;10369947;28;20232;-87
2023/09/22 02:35:49;;;;;;;9.23;5.45;;;19.10;99.90;;;;;;10349350;28;20244;-87
2023/09/22 02:40:53;;;;;;;8.88;6.57;;;19.20;99.90;;;;;;10350383;28;20317;-87
2023/09/22 02:45:55;;;;;;;8.50;5.25;;;19.20;99.50;;;;;;10368202;28;20628;-87
2023/09/22 02:50:58;;;;;;;7.88;4.18;;;19.30;99.90;;;;;;10350421;28;20220;-87
2023/09/22 02:56:08;;;;;;;5.13;3.90;;;19.20;99.90;;;;;;10367070;28;20231;-86
2023/09/22 03:01:11;;;;;;;7.10;4.28;;;19.30;99.90;;;;;;10368211;28;20248;-86
2023/09/22 03:06:14;;;;;;;2.83;2.53;;;19.30;99.90;;;;;;10367364;28;20259;-87
2023/09/22 03:11:19;;;;;;;2.88;2.53;;;19.30;99.90;;;;;;10350474;28;20247;-87
2023/09/22 03:16:21;;;;;;;6.80;5.03;;;19.30;99.90;;;;;;10349368;28;20235;-87
2023/09/22 03:21:25;;;;;;;3.22;2.92;;;19.20;99.60;;;;;;10325889;28;20603;-86
2023/09/22 03:26:29;;;;;;;8.68;5.30;;;19.30;99.90;;;;;;10328214;28;20281;-86
2023/09/22 03:31:31;;;;;;;3.47;3.17;;;19.00;99.90;;;;;;10367412;28;20274;-87
2023/09/22 03:36:35;;;;;;;4.30;3.72;;;19.00;99.90;;;;;;10349184;28;20270;-86
2023/09/22 03:41:38;;;;;;;6.75;3.78;;;19.00;99.90;;;;;;10366840;28;20646;-87
2023/09/22 03:46:41;;;;;;;5.28;4.78;;;19.00;99.90;;;;;;10344832;28;20258;-87
2023/09/22 03:51:43;;;;;;;10.50;7.00;;;19.10;99.90;;;;;;10308473;28;20310;-86
2023/09/22 03:56:46;;;;;;;3.85;2.92;;;18.90;99.90;;;;;;10359728;28;20258;-87
2023/09/22 04:01:49;;;;;;;7.82;5.07;;;18.70;99.90;;;;;;10366157;28;20701;-87
2023/09/22 04:06:52;;;;;;;9.05;5.45;;;18.70;99.90;;;;;;10339490;28;20255;-87
2023/09/22 04:11:54;;;;;;;11.80;6.72;;;18.70;99.90;;;;;;10374430;28;20310;-87
2023/09/22 04:16:57;;;;;;;7.97;5.60;;;18.70;99.90;;;;;;10372384;28;20236;-86
2023/09/22 04:22:00;;;;;;;8.55;6.20;;;18.60;99.90;;;;;;10336656;28;20252;-86
2023/09/22 04:27:09;;;;;;;15.18;6.13;;;18.60;99.90;;;;;;10372452;28;20302;-86
2023/09/22 04:32:11;;;;;;;7.28;5.47;;;18.50;99.90;;;;;;10354375;28;20232;-87
2023/09/22 04:37:15;;;;;;;9.82;5.50;;;18.30;99.90;;;;;;10371558;28;20260;-86
2023/09/22 04:42:17;;;;;;;5.18;4.60;;;18.30;99.90;;;;;;10371909;28;20255;-86
2023/09/22 04:47:20;;;;;;;10.43;4.55;;;18.40;99.90;;;;;;10372785;28;20224;-85
2023/09/22 04:52:22;;;;;;;8.10;5.28;;;18.40;99.90;;;;;;10372428;28;20302;-86
2023/09/22 04:57:25;;;;;;;8.18;5.75;;;18.10;99.90;;;;;;10370525;28;20235;-86
2023/09/22 05:02:28;;;;;;;10.57;5.53;;;18.00;99.90;;;;;;10354384;28;20248;-86
2023/09/22 05:07:30;;;;;;;7.70;5.32;;;17.90;99.90;;;;;;10353647;28;20255;-85
2023/09/22 05:12:35;;;;;;;10.25;6.13;;;18.20;99.90;;;;;;10334493;28;20326;-85
2023/09/22 05:17:38;;;;;;;13.40;6.72;;;18.10;99.90;;;;;;10341951;28;20240;-86
2023/09/22 05:22:42;;;;;;;12.32;6.60;;;18.10;99.90;;;;;;10366857;28;20248;-86
2023/09/22 05:27:45;;;;;;;4.00;3.67;;;18.20;99.90;;;;;;10370717;28;20302;-86
2023/09/22 05:32:48;;;;;;;5.35;4.47;;;18.30;99.90;;;;;;10335080;28;20235;-86
2023/09/22 05:37:52;;;;;;;4.55;4.22;;;18.50;99.90;;;;;;10351646;28;20284;-86
2023/09/22 05:42:54;;;;;;;9.63;6.68;;;18.70;99.90;;;;;;10370805;28;20274;-86
2023/09/22 05:47:57;;;;;;;12.18;7.78;;;18.70;99.90;;;;;;10348780;28;20691;-86
2023/09/22 05:53:00;;;;;;;8.38;6.97;;;18.50;99.90;;;;;;10325715;28;20240;-86
2023/09/22 05:58:03;;;;;;;18.02;8.32;;;18.20;99.90;;;;;;10337080;28;20663;-86
2023/09/22 06:03:06;;;;;;;12.90;7.10;;;18.00;99.90;;;;;;10345271;28;20853;-86
2023/09/22 06:08:08;;;;;;;10.80;7.45;;;18.00;99.90;;;;;;10345266;28;20256;-86
2023/09/22 06:13:11;;;;;;;16.10;8.25;;;18.30;99.90;;;;;;10329261;28;20233;-85
2023/09/22 06:18:15;;;;;;;13.05;7.55;;;18.00;99.90;;;;;;10351003;28;21012;-85
2023/09/22 06:23:19;;;;;;;8.88;6.10;;;18.20;99.90;;;;;;10350379;28;20309;-86
2023/09/22 06:28:21;;;;;;;5.65;4.40;;;18.30;99.90;;;;;;10362884;28;20282;-85
2023/09/22 06:33:24;;;;;;;21.67;6.13;;;18.70;99.90;;;;;;10367492;28;20239;-86
2023/09/22 06:38:26;;;;;;;6.45;4.70;;;19.00;99.90;;;;;;10343385;28;20229;-87
2023/09/22 06:43:30;;;;;;;12.10;5.40;;;19.20;99.90;;;;;;10335056;28;20260;-86
2023/09/22 06:48:32;;;;;;;8.98;5.95;;;19.50;99.90;;;;;;10326634;28;20521;-86
2023/09/22 06:53:36;;;;;;;5.78;4.63;;;19.70;99.90;;;;;;10309881;28;20241;-86
2023/09/22 06:58:40;;;;;;;4.97;4.53;;;20.00;99.90;;;;;;10345368;28;20271;-85
2023/09/22 07:03:45;;;;;;;7.28;5.10;;;20.10;99.90;;;;;;10356849;28;20393;-87
2023/09/22 07:08:48;;;;;;;8.45;5.07;;;20.30;99.90;;;;;;10347064;28;20283;-86
2023/09/22 07:13:51;;;;;;;8.90;4.88;;;20.30;99.90;;;;;;10366362;28;20236;-86
2023/09/22 07:18:53;;;;;;;8.45;4.85;;;20.30;99.80;;;;;;10364527;28;20263;-86
2023/09/22 07:23:56;;;;;;;9.50;4.97;;;20.50;99.50;;;;;;10365511;28;20244;-86
2023/09/22 07:28:58;;;;;;;8.68;5.43;;;20.70;99.40;;;;;;10364658;28;20239;-86
2023/09/22 07:34:02;;;;;;;10.05;5.30;;;20.90;98.40;;;;;;10364208;28;20243;-86
2023/09/22 07:39:04;;;;;;;8.73;4.82;;;21.10;97.30;;;;;;10365868;28;20240;-86
2023/09/22 07:44:07;;;;;;;9.68;4.65;;;21.30;96.70;;;;;;10332187;28;20264;-86
2023/09/22 07:49:11;;;;;;;4.65;4.18;;;21.70;94.90;;;;;;10365785;28;20235;-86
2023/09/22 07:54:13;;;;;;;5.60;4.43;;;22.00;94.10;;;;;;10365650;28;20717;-86
2023/09/22 07:59:18;;;;;;;4.75;4.18;;;22.20;93.20;;;;;;10330856;28;20682;-85
2023/09/22 08:04:20;;;;;;;4.72;4.10;;;22.40;92.70;;;;;;10334651;28;20318;-86
2023/09/22 08:09:23;;;;;;;9.48;4.65;;;22.50;92.40;;;;;;10343256;28;20229;-86
2023/09/22 08:14:26;;;;;;;8.25;4.57;;;22.50;92.40;;;;;;10346172;28;20228;-86
2023/09/22 08:19:49;;;;;;;9.32;4.93;;;22.40;92.90;;;;;;10346323;28;20318;-86
2023/09/22 08:24:53;;;;;;;6.50;4.75;;;22.50;92.30;;;;;;10360286;28;20232;-86
2023/09/22 08:29:56;;;;;;;5.75;3.83;;;22.60;92.20;;;;;;10363311;28;20294;-85
2023/09/22 08:34:59;;;;;;;7.25;4.85;;;22.80;91.50;;;;;;10361853;28;20616;-86
2023/09/22 08:40:04;;;;;;;4.80;3.72;;;22.90;91.70;;;;;;10359249;28;20688;-85
2023/09/22 08:45:07;;;;;;;7.85;4.82;;;23.00;90.70;;;;;;10346495;28;20342;-85
2023/09/22 08:50:14;;;;;;;7.22;4.80;;;23.00;90.90;;;;;;10364680;28;20301;-85
2023/09/22 08:55:18;;;;;;;8.88;5.50;;;23.00;91.40;;;;;;10354561;28;20259;-85
2023/09/22 09:00:26;;;;;;;8.32;5.82;;;22.90;91.70;;;;;;10370006;28;20260;-85
2023/09/22 09:05:31;;;;;;;7.03;4.30;;;23.00;90.40;;;;;;10353410;28;20259;-85
2023/09/22 09:10:34;;;;;;;6.07;5.47;;;23.10;90.10;;;;;;10352607;28;20228;-85
2023/09/22 09:16:07;;;;;;;7.75;5.45;;;23.20;90.10;;;;;;10370535;28;20240;-85
2023/09/22 09:21:16;;;;;;;4.45;4.05;;;23.30;88.70;;;;;;10370618;28;20723;-86
2023/09/22 09:26:37;;;;;;;8.25;5.78;;;23.30;88.50;;;;;;10331107;28;20240;-85
2023/09/22 09:31:47;;;;;;;9.20;6.18;;;23.30;89.40;;;;;;10337314;28;20235;-85
2023/09/22 09:37:12;;;;;;;12.95;6.10;;;23.10;89.20;;;;;;10329981;28;20249;-85
2023/09/22 09:42:17;;;;;;;4.68;4.28;;;23.10;90.40;;;;;;10356292;28;20333;-85
2023/09/22 09:47:32;;;;;;;15.13;5.60;;;23.20;90.00;;;;;;10346592;28;20640;-86
2023/09/22 09:52:51;;;;;;;12.32;4.95;;;23.20;90.00;;;;;;10347216;28;20235;-85
2023/09/22 09:57:56;;;;;;;8.57;4.80;;;23.30;90.40;;;;;;10326243;28;20672;-86
2023/09/22 10:03:01;;;;;;;12.18;5.32;;;23.30;90.60;;;;;;10325091;28;20247;-85
2023/09/22 10:08:06;;;;;;;4.10;3.72;;;23.40;90.20;;;;;;10344449;28;20260;-86
2023/09/22 10:13:09;;;;;;;4.72;4.32;;;23.30;89.40;;;;;;10361143;28;20307;-86
2023/09/22 10:18:17;;;;;;;7.88;4.93;;;23.40;90.10;;;;;;10350623;28;20241;-84
2023/09/22 10:23:22;;;;;;;9.27;4.72;;;23.50;89.20;;;;;;10310691;28;20264;-84
2023/09/22 10:28:28;;;;;;;9.93;4.82;;;23.70;88.50;;;;;;10351448;28;20232;-84
2023/09/22 10:33:32;;;;;;;7.60;4.75;;;23.70;87.90;;;;;;10351256;28;20227;-84
2023/09/22 10:38:53;;;;;;;6.82;5.55;;;23.90;86.50;;;;;;10368917;28;20235;-84
2023/09/22 10:43:57;;;;;;;14.30;5.53;;;24.00;86.60;;;;;;10366988;28;20313;-84
2023/09/22 10:49:00;;;;;;;7.63;4.57;;;23.90;86.00;;;;;;10368038;28;20236;-84
2023/09/22 10:54:04;;;;;;;8.88;4.35;;;24.00;84.70;;;;;;10341558;28;20240;-84
2023/09/22 10:59:06;;;;;;;7.20;4.82;;;24.10;83.70;;;;;;10327498;28;20291;-84
2023/09/22 11:04:10;;;;;;;12.02;4.65;;;24.20;82.90;;;;;;10349714;28;20298;-84
2023/09/22 11:09:14;;;;;;;4.45;3.63;;;24.40;82.30;;;;;;10333315;28;20972;-84
2023/09/22 11:14:20;;;;;;;5.07;4.40;;;24.50;80.30;;;;;;10365813;28;20658;-84
2023/09/22 11:19:22;;;;;;;7.68;4.03;;;24.40;79.60;;;;;;10367267;28;20236;-84
2023/09/22 11:24:25;;;;;;;7.32;3.78;;;24.20;80.60;;;;;;10348253;28;20302;-82
2023/09/22 11:29:29;;;;;;;8.70;4.03;;;24.20;81.10;;;;;;10345424;28;20695;-86
2023/09/22 11:34:31;;;;;;;6.15;3.25;;;24.00;80.80;;;;;;10347645;28;20227;-87
2023/09/22 11:39:34;;;;;;;9.30;3.05;;;24.10;81.70;;;;;;10349380;28;20236;-87
2023/09/22 11:44:36;;;;;;;8.27;2.97;;;24.30;80.90;;;;;;10332895;28;20270;-87
2023/09/22 11:49:39;;;;;;;3.55;2.65;;;24.60;80.70;;;;;;10365039;28;20266;-87
2023/09/22 11:54:43;;;;;;;4.90;2.72;;;24.90;78.70;;;;;;10347733;28;20224;-87
2023/09/22 11:59:48;;;;;;;3.28;2.35;;;24.90;77.30;;;;;;10349046;28;21572;-87
2023/09/22 12:04:52;;;;;;;5.68;2.63;;;25.00;77.40;;;;;;10347071;28;20773;-88
2023/09/22 12:09:55;;;;;;;3.38;3.08;;;25.20;73.70;;;;;;10326492;28;20201;-87
2023/09/22 12:14:57;;;;;;;3.67;2.70;;;25.40;75.40;;;;;;10338968;28;20342;-87
2023/09/22 12:20:00;;;;;;;3.55;3.03;;;25.30;74.20;;;;;;10325590;28;20833;-87
2023/09/22 12:25:03;;;;;;;3.40;2.75;;;25.20;72.80;;;;;;10332434;28;20252;-87
2023/09/22 12:30:06;;;;;;;3.42;2.70;;;25.20;74.30;;;;;;10361568;28;20259;-87
2023/09/22 12:35:09;;;;;;;6.25;2.33;;;25.20;75.10;;;;;;10348290;28;20302;-87
2023/09/22 12:40:12;;;;;;;5.40;2.85;;;25.10;75.80;;;;;;10354935;28;20240;-87
2023/09/22 12:45:16;;;;;;;3.28;2.40;;;25.00;73.60;;;;;;10336945;28;20272;-87
2023/09/22 12:50:19;;;;;;;6.13;2.63;;;24.60;76.10;;;;;;10356275;28;20232;-87
2023/09/22 12:55:22;;;;;;;3.25;2.30;;;24.60;75.90;;;;;;10334098;28;20272;-86
2023/09/22 13:00:24;;;;;;;4.25;2.10;;;24.70;79.60;;;;;;10349369;28;20625;-87
2023/09/22 13:05:27;;;;;;;3.00;2.50;;;24.70;78.30;;;;;;10334070;28;20295;-87
2023/09/22 13:10:30;;;;;;;2.70;2.30;;;24.70;79.20;;;;;;10344395;28;20262;-87
2023/09/22 13:15:33;;;;;;;88.88;8.68;;;24.60;76.60;;;;;;10372086;28;20240;-87
2023/09/22 13:20:36;;;;;;;15.60;3.08;;;24.40;72.80;;;;;;10368611;28;20295;-87
2023/09/22 13:25:40;;;;;;;2.65;2.40;;;23.70;75.30;;;;;;10352914;28;20286;-87
2023/09/22 13:30:46;;;;;;;3.70;2.05;;;23.20;80.10;;;;;;10353148;28;20228;-87
2023/09/22 13:35:50;;;;;;;5.53;2.92;;;22.80;82.10;;;;;;10358084;28;20244;-87
2023/09/22 13:40:53;;;;;;;4.38;2.50;;;22.70;89.40;;;;;;10369713;28;20266;-87
2023/09/22 13:45:55;;;;;;;3.35;2.80;;;23.00;90.20;;;;;;10368477;28;20290;-87
2023/09/22 13:50:58;;;;;;;4.20;2.55;;;23.20;90.90;;;;;;10343546;28;20742;-87
2023/09/22 13:56:01;;;;;;;4.45;3.03;;;23.30;88.60;;;;;;10329092;28;20310;-86
2023/09/22 14:01:11;;;;;;;2.85;2.58;;;23.30;90.20;;;;;;10359959;28;20615;-87
2023/09/22 14:06:16;;;;;;;8.90;2.72;;;23.30;90.20;;;;;;10369443;28;20306;-87
2023/09/22 14:11:18;;;;;;;3.70;2.65;;;23.50;87.70;;;;;;10334930;28;20232;-86
2023/09/22 14:16:21;;;;;;;3.40;2.40;;;23.60;89.60;;;;;;10367797;28;20654;-86
2023/09/22 14:21:24;;;;;;;5.93;2.42;;;23.70;89.00;;;;;;10368109;28;20661;-86
2023/09/22 14:31:58;;;;;;;2.45;1.83;;;23.70;88.10;;;;;;10730358;23;10001738;-85
2023/09/22 14:37:01;;;;;;;8.18;1.85;;;23.70;87.00;;;;;;10238994;28;20296;-86
2023/09/22 14:42:05;;;;;;;3.00;2.15;;;23.50;85.60;;;;;;10242936;28;20277;-86
2023/09/22 14:47:07;;;;;;;3.53;2.30;;;23.60;86.90;;;;;;10226002;28;20245;-87
2023/09/22 14:52:11;;;;;;;2.70;2.20;;;23.50;88.30;;;;;;10238147;28;20270;-87
2023/09/22 14:57:14;;;;;;;2.25;2.05;;;23.40;86.90;;;;;;10226105;29;20397;-87
2023/09/22 15:02:19;;;;;;;2.97;1.90;;;23.30;89.00;;;;;;10224978;29;20262;-87
2023/09/22 15:07:21;;;;;;;2.75;2.40;;;23.20;88.50;;;;;;10210606;28;20236;-86
2023/09/22 15:12:25;;;;;;;2.28;1.88;;;23.20;90.70;;;;;;10190506;29;21158;-87
2023/09/22 15:17:28;;;;;;;6.50;2.30;;;23.30;90.20;;;;;;10192350;29;20238;-86
2023/09/22 15:22:31;;;;;;;2.15;1.90;;;23.70;89.80;;;;;;10196602;29;20262;-87
2023/09/22 15:27:34;;;;;;;2.30;1.92;;;23.80;87.70;;;;;;10189470;29;20267;-87
2023/09/22 15:32:37;;;;;;;2.10;1.90;;;24.00;86.50;;;;;;10206212;29;20278;-87
2023/09/22 15:37:40;;;;;;;2.35;2.00;;;24.10;84.90;;;;;;10206123;29;20306;-87
2023/09/22 15:42:43;;;;;;;1.65;1.50;;;24.00;84.50;;;;;;10189600;29;20251;-87
2023/09/22 15:47:45;;;;;;;2.45;2.25;;;23.90;83.20;;;;;;10207073;29;20230;-86
2023/09/22 15:52:48;;;;;;;3.70;1.65;;;23.90;86.10;;;;;;10205860;29;20242;-87
2023/09/22 15:57:51;;;;;;;3.40;1.85;;;23.70;83.40;;;;;;10204843;29;20243;-86
2023/09/22 16:02:55;;;;;;;2.38;2.10;;;23.60;87.00;;;;;;9527985;29;10000459;-87
2023/09/22 16:07:58;;;;;;;2.30;1.73;;;23.50;86.10;;;;;;10194254;29;20301;-87
2023/09/22 16:13:02;;;;;;;1.48;1.38;;;23.40;87.10;;;;;;10211388;29;20222;-87
2023/09/22 16:18:14;;;;;;;3.88;1.48;;;23.20;89.80;;;;;;10211327;29;20243;-87
2023/09/22 16:23:16;;;;;;;1.75;1.48;;;22.50;90.70;;;;;;10211969;29;20266;-88
2023/09/22 16:28:19;;;;;;;2.00;1.35;;;22.00;93.50;;;;;;10186682;29;20302;-87
2023/09/22 16:33:23;;;;;;;3.17;1.85;;;21.40;95.20;;;;;;10209606;29;20298;-88
2023/09/22 16:38:30;;;;;;;1.48;1.23;;;21.30;96.70;;;;;;10208832;29;20265;-87
2023/09/22 16:43:32;;;;;;;1.30;1.20;;;21.20;97.00;;;;;;10191948;29;20258;-87
2023/09/22 16:48:35;;;;;;;2.05;1.48;;;21.20;96.80;;;;;;10207785;29;20254;-87
2023/09/22 16:53:37;;;;;;;1.90;1.80;;;21.20;97.10;;;;;;10209551;29;20238;-87
2023/09/22 16:58:40;;;;;;;4.25;1.65;;;21.40;97.00;;;;;;10208769;29;20364;-88
2023/09/22 17:03:43;;;;;;;3.22;1.60;;;21.50;96.40;;;;;;10192070;29;20262;-87
2023/09/22 17:08:46;;;;;;;1.52;1.42;;;21.70;95.70;;;;;;10192971;29;20223;-87
2023/09/22 17:13:49;;;;;;;1.52;1.42;;;21.60;95.50;;;;;;10207322;29;20270;-87
2023/09/22 17:18:52;;;;;;;1.75;1.30;;;21.40;95.30;;;;;;10207103;29;20234;-88
2023/09/22 17:23:55;;;;;;;2.25;1.40;;;21.60;95.10;;;;;;10208243;29;20246;-88
2023/09/22 17:28:57;;;;;;;2.10;1.73;;;21.80;94.80;;;;;;10207217;29;20701;-87
2023/09/22 17:34:00;;;;;;;2.47;1.70;;;21.50;92.50;;;;;;10173443;29;20270;-88
2023/09/22 17:39:04;;;;;;;1.50;1.25;;;21.40;95.50;;;;;;10191035;29;20259;-87
2023/09/22 17:44:06;;;;;;;1.13;1.05;;;21.10;95.00;;;;;;10206255;29;20671;-88
2023/09/22 17:49:10;;;;;;;2.50;1.05;;;20.60;96.30;;;;;;10193038;29;20242;-88
2023/09/22 17:54:14;;;;;;;1.90;1.40;;;20.30;95.90;;;;;;10209749;29;20303;-87
2023/09/22 17:59:16;;;;;;;1.85;1.20;;;19.80;99.20;;;;;;10208777;29;20290;-87
2023/09/22 18:04:19;;;;;;;1.65;1.38;;;19.80;98.80;;;;;;10209548;29;20339;-88
2023/09/22 18:09:23;;;;;;;1.40;1.30;;;19.80;99.90;;;;;;10192696;29;20234;-88
2023/09/22 18:14:27;;;;;;;1.30;1.20;;;19.80;99.90;;;;;;10191731;29;20246;-89
2023/09/22 18:19:30;;;;;;;2.20;1.17;;;19.80;99.90;;;;;;10206314;29;20609;-87
2023/09/22 18:24:34;;;;;;;1.48;1.00;;;19.80;99.90;;;;;;10207083;29;20655;-86
2023/09/22 18:29:39;;;;;;;3.13;1.65;;;19.70;99.90;;;;;;10190762;29;20231;-88
2023/09/22 18:34:43;;;;;;;2.67;1.27;;;19.50;99.90;;;;;;10187418;29;20274;-87
2023/09/22 18:39:46;;;;;;;2.85;1.40;;;19.00;99.90;;;;;;10190242;29;20274;-87
2023/09/22 18:44:49;;;;;;;1.45;1.30;;;18.90;99.90;;;;;;10207901;29;20259;-87
2023/09/22 18:49:52;;;;;;;3.67;1.17;;;18.70;99.90;;;;;;10186953;29;20765;-87
2023/09/22 18:54:55;;;;;;;1.35;1.20;;;18.60;99.90;;;;;;10189972;29;20246;-87
2023/09/22 18:59:58;;;;;;;2.72;1.60;;;18.50;99.90;;;;;;10174529;29;20215;-87
2023/09/22 19:05:01;;;;;;;1.70;1.40;;;18.30;99.90;;;;;;10202110;29;20266;-87
2023/09/22 19:10:04;;;;;;;2.75;1.80;;;17.10;99.90;;;;;;10191189;29;20231;-87
2023/09/22 19:15:07;;;;;;;3.97;1.88;;;16.70;99.90;;;;;;10189256;29;20293;-88
2023/09/22 19:20:11;;;;;;;2.08;1.65;;;16.60;99.90;;;;;;10188220;29;20339;-87
2023/09/22 19:25:14;;;;;;;2.22;1.95;;;16.40;99.90;;;;;;9507922;29;10000700;-86
2023/09/22 19:30:16;;;;;;;2.47;1.60;;;16.20;99.90;;;;;;10203797;29;20714;-87
2023/09/22 19:35:19;;;;;;;2.45;1.90;;;16.00;99.90;;;;;;10184777;29;20270;-88
2023/09/22 19:40:22;;;;;;;3.30;1.80;;;15.80;99.90;;;;;;10179345;29;20235;-87
2023/09/22 19:45:24;;;;;;;2.55;2.35;;;15.70;99.90;;;;;;10167602;29;20724;-87
2023/09/22 19:50:27;;;;;;;3.08;2.30;;;15.70;99.90;;;;;;10198389;29;20298;-87
2023/09/22 19:55:30;;;;;;;4.07;2.80;;;15.70;99.90;;;;;;10185826;29;20234;-88
2023/09/22 20:00:39;;;;;;;4.55;3.05;;;15.60;99.90;;;;;;10200995;29;20309;-87
2023/09/22 20:05:48;;;;;;;5.13;2.50;;;15.40;99.90;;;;;;10203778;29;20258;-87
2023/09/22 20:11:00;;;;;;;3.55;2.10;;;15.40;99.90;;;;;;10185448;29;20234;-87
2023/09/22 20:16:05;;;;;;;4.53;2.38;;;15.30;99.90;;;;;;10183226;29;20757;-87
2023/09/22 20:21:08;;;;;;;3.30;2.75;;;15.40;99.90;;;;;;10175689;29;20325;-87
2023/09/22 20:26:11;;;;;;;3.38;2.50;;;15.40;99.90;;;;;;10178532;29;20314;-87
2023/09/22 20:31:14;;;;;;;3.40;2.55;;;15.30;99.90;;;;;;10169056;29;20270;-88
2023/09/22 20:36:17;;;;;;;3.05;2.75;;;15.20;99.90;;;;;;10201937;29;20379;-88
2023/09/22 20:41:20;;;;;;;5.57;3.13;;;15.20;99.90;;;;;;10184937;29;20325;-88
2023/09/22 20:46:23;;;;;;;4.10;3.13;;;15.20;99.90;;;;;;10186101;29;20341;-88
2023/09/22 20:51:25;;;;;;;3.45;3.15;;;15.20;99.90;;;;;;10209059;29;20242;-88
2023/09/22 20:56:29;;;;;;;5.82;2.38;;;15.10;99.90;;;;;;10209127;29;20246;-87
2023/09/22 21:01:37;;;;;;;3.75;3.38;;;15.10;99.90;;;;;;10205318;29;20239;-88
2023/09/22 21:06:43;;;;;;;3.17;2.80;;;15.10;99.90;;;;;;10191962;29;20325;-88
2023/09/22 21:11:47;;;;;;;3.22;2.85;;;14.90;99.90;;;;;;10190562;29;20289;-87
2023/09/22 21:16:50;;;;;;;3.83;3.40;;;15.00;99.90;;;;;;10190500;29;20239;-88
2023/09/22 21:21:53;;;;;;;2.92;2.63;;;15.10;99.90;;;;;;10206279;29;20242;-88
2023/09/22 21:26:56;;;;;;;6.18;3.03;;;15.00;99.90;;;;;;10183241;29;20259;-87
2023/09/22 21:31:58;;;;;;;5.65;2.83;;;15.00;99.90;;;;;;10181401;29;20698;-88
2023/09/22 21:37:01;;;;;;;3.00;2.08;;;15.00;99.90;;;;;;10208040;29;20801;-88
2023/09/22 21:42:04;;;;;;;3.03;2.70;;;14.90;99.90;;;;;;10228817;29;20678;-88
2023/09/22 21:47:06;;;;;;;3.75;2.28;;;14.90;99.90;;;;;;10206700;29;20747;-88
2023/09/22 21:52:09;;;;;;;3.90;2.90;;;14.90;99.90;;;;;;10187692;29;20737;-87
2023/09/22 21:57:12;;;;;;;2.65;2.45;;;14.90;99.90;;;;;;10203433;29;20644;-87
2023/09/22 22:02:14;;;;;;;3.72;3.13;;;14.90;99.90;;;;;;10184302;29;20725;-87
2023/09/22 22:07:18;;;;;;;3.45;3.13;;;14.90;99.90;;;;;;10189501;29;20259;-87
2023/09/22 22:12:21;;;;;;;3.83;3.08;;;15.00;99.90;;;;;;10177281;29;20235;-88
2023/09/22 22:17:24;;;;;;;4.72;3.55;;;15.00;99.90;;;;;;10184718;29;20275;-87
2023/09/22 22:22:27;;;;;;;3.63;3.17;;;15.00;99.90;;;;;;10178471;29;20302;-87
2023/09/22 22:27:30;;;;;;;3.90;2.53;;;14.90;99.90;;;;;;10207637;29;20254;-86
2023/09/22 22:32:33;;;;;;;3.17;2.85;;;15.10;99.90;;;;;;10206935;29;20302;-87
2023/09/22 22:37:37;;;;;;;5.18;3.55;;;15.70;99.90;;;;;;10209799;29;20963;-87
2023/09/22 22:42:40;;;;;;;3.60;2.65;;;16.00;99.90;;;;;;10182015;29;20243;-87
2023/09/22 22:47:44;;;;;;;3.78;3.47;;;16.30;99.90;;;;;;10189280;29;20258;-87
2023/09/22 22:52:47;;;;;;;9.68;4.88;;;16.70;99.90;;;;;;10190671;29;20246;-86
2023/09/22 22:57:50;;;;;;;7.03;5.38;;;16.70;99.90;;;;;;10207902;29;20770;-87
2023/09/22 23:02:53;;;;;;;5.57;4.97;;;16.50;99.90;;;;;;10207768;29;20238;-87
2023/09/22 23:07:57;;;;;;;5.80;5.25;;;16.40;99.90;;;;;;10206693;29;20809;-87
2023/09/22 23:13:09;;;;;;;1.70;1.60;;;16.40;99.90;;;;;;10206876;29;20230;-86
2023/09/22 23:18:16;;;;;;;3.70;3.13;;;16.80;99.90;;;;;;10207347;29;20238;-86
2023/09/22 23:23:19;;;;;;;4.63;4.22;;;17.20;99.90;;;;;;10189160;29;20234;-87
2023/09/22 23:28:24;;;;;;;3.78;2.60;;;17.00;99.90;;;;;;10206151;29;20270;-87
2023/09/22 23:33:29;;;;;;;5.28;3.55;;;17.50;99.90;;;;;;10206656;29;20676;-87
2023/09/22 23:38:33;;;;;;;5.45;3.72;;;17.30;99.90;;;;;;10206448;29;20242;-88
2023/09/22 23:43:38;;;;;;;3.53;3.20;;;17.50;99.90;;;;;;10165437;29;20239;-87
2023/09/22 23:48:41;;;;;;;3.15;2.35;;;17.40;99.90;;;;;;10167050;29;20303;-86
2023/09/22 23:53:44;;;;;;;5.13;3.30;;;17.80;99.90;;;;;;10166157;29;20620;-86
2023/09/22 23:58:47;;;;;;;3.22;2.58;;;17.80;99.90;;;;;;10176649;29;20230;-86
